sensor_id;sensor_type;location;lat;lon;timestamp;temperature;humidity
3758;DHT22;1894;51.038;13.692;2023-02-15T00:00:06;0.60;99.90
3758;DHT22;1894;51.038;13.692;2023-02-15T00:02:37;0.60;99.90
3758;DHT22;1894;51.038;13.692;2023-02-15T00:05:05;0.60;99.90
3758;DHT22;1894;51.038;13.692;2023-02-15T00:07:33;0.60;99.90
3758;DHT22;1894;51.038;13.692;2023-02-15T00:10:01;0.60;99.90
3758;DHT22;1894;51.038;13.692;2023-02-15T00:12:28;0.60;99.90
3758;DHT22;1894;51.038;13.692;2023-02-15T00:14:55;0.60;99.90
3758;DHT22;1894;51.038;13.692;2023-02-15T00:17:22;0.60;99.90
3758;DHT22;1894;51.038;13.692;2023-02-15T00:19:49;0.60;99.90
3758;DHT22;1894;51.038;13.692;2023-02-15T00:22:16;0.60;99.90
3758;DHT22;1894;51.038;13.692;2023-02-15T00:24:43;0.60;99.90
3758;DHT22;1894;51.038;13.692;2023-02-15T00:27:10;0.50;99.90
3758;DHT22;1894;51.038;13.692;2023-02-15T00:29:38;0.50;99.90
3758;DHT22;1894;51.038;13.692;2023-02-15T00:32:05;0.50;99.90
3758;DHT22;1894;51.038;13.692;2023-02-15T00:34:33;0.50;99.90
3758;DHT22;1894;51.038;13.692;2023-02-15T00:37:00;0.50;99.90
3758;DHT22;1894;51.038;13.692;2023-02-15T00:39:27;0.50;99.90
3758;DHT22;1894;51.038;13.692;2023-02-15T00:41:55;0.40;99.90
3758;DHT22;1894;51.038;13.692;2023-02-15T00:44:22;0.40;99.90
3758;DHT22;1894;51.038;13.692;2023-02-15T00:46:50;0.30;99.90
3758;DHT22;1894;51.038;13.692;2023-02-15T00:49:17;0.30;99.90
3758;DHT22;1894;51.038;13.692;2023-02-15T00:51:44;0.40;99.90
3758;DHT22;1894;51.038;13.692;2023-02-15T00:54:11;0.30;99.90
3758;DHT22;1894;51.038;13.692;2023-02-15T00:56:38;0.30;99.90
3758;DHT22;1894;51.038;13.692;2023-02-15T00:59:05;0.30;99.90
3758;DHT22;1894;51.038;13.692;2023-02-15T01:01:32;0.30;99.90
3758;DHT22;1894;51.038;13.692;2023-02-15T01:04:00;0.30;99.90
3758;DHT22;1894;51.038;13.692;2023-02-15T01:06:29;0.30;99.90
3758;DHT22;1894;51.038;13.692;2023-02-15T01:08:56;0.20;99.90
3758;DHT22;1894;51.038;13.692;2023-02-15T01:11:23;0.10;99.90
3758;DHT22;1894;51.038;13.692;2023-02-15T01:13:52;0.10;99.90
3758;DHT22;1894;51.038;13.692;2023-02-15T01:16:22;0.20;99.90
3758;DHT22;1894;51.038;13.692;2023-02-15T01:18:50;0.10;99.90
3758;DHT22;1894;51.038;13.692;2023-02-15T01:21:20;0.10;99.90
3758;DHT22;1894;51.038;13.692;2023-02-15T01:23:48;0.10;99.90
3758;DHT22;1894;51.038;13.692;2023-02-15T01:26:17;0.20;99.90
3758;DHT22;1894;51.038;13.692;2023-02-15T01:28:44;0.20;99.90
3758;DHT22;1894;51.038;13.692;2023-02-15T01:31:14;0.20;99.90
3758;DHT22;1894;51.038;13.692;2023-02-15T01:33:45;0.20;99.90
3758;DHT22;1894;51.038;13.692;2023-02-15T01:36:13;0.20;99.90
3758;DHT22;1894;51.038;13.692;2023-02-15T01:38:41;0.20;99.90
3758;DHT22;1894;51.038;13.692;2023-02-15T01:41:09;0.20;99.90
3758;DHT22;1894;51.038;13.692;2023-02-15T01:46:43;0.20;99.90
3758;DHT22;1894;51.038;13.692;2023-02-15T01:49:17;0.30;99.90
3758;DHT22;1894;51.038;13.692;2023-02-15T01:51:47;0.30;99.90
3758;DHT22;1894;51.038;13.692;2023-02-15T01:54:23;0.30;99.90
3758;DHT22;1894;51.038;13.692;2023-02-15T01:56:55;0.30;99.90
3758;DHT22;1894;51.038;13.692;2023-02-15T01:59:31;0.30;99.90
3758;DHT22;1894;51.038;13.692;2023-02-15T02:02:00;0.30;99.90
3758;DHT22;1894;51.038;13.692;2023-02-15T02:04:49;0.30;99.90
3758;DHT22;1894;51.038;13.692;2023-02-15T02:07:25;0.30;99.90
3758;DHT22;1894;51.038;13.692;2023-02-15T02:09:54;0.20;99.90
3758;DHT22;1894;51.038;13.692;2023-02-15T02:12:23;0.20;99.90
3758;DHT22;1894;51.038;13.692;2023-02-15T02:14:52;0.10;99.90
3758;DHT22;1894;51.038;13.692;2023-02-15T02:17:51;0.10;99.90
3758;DHT22;1894;51.038;13.692;2023-02-15T02:41:17;0.10;99.90
3758;DHT22;1894;51.038;13.692;2023-02-15T02:44:07;0.20;99.90
3758;DHT22;1894;51.038;13.692;2023-02-15T02:46:53;0.10;99.90
3758;DHT22;1894;51.038;13.692;2023-02-15T02:49:37;0.10;99.90
3758;DHT22;1894;51.038;13.692;2023-02-15T02:52:33;0.20;99.90
3758;DHT22;1894;51.038;13.692;2023-02-15T02:58:03;0.20;99.90
3758;DHT22;1894;51.038;13.692;2023-02-15T03:03:57;0.10;99.90
3758;DHT22;1894;51.038;13.692;2023-02-15T03:06:25;0.10;99.90
3758;DHT22;1894;51.038;13.692;2023-02-15T03:09:12;0.10;99.90
3758;DHT22;1894;51.038;13.692;2023-02-15T03:11:44;0.10;99.90
3758;DHT22;1894;51.038;13.692;2023-02-15T03:14:14;0.00;99.90
3758;DHT22;1894;51.038;13.692;2023-02-15T03:16:46;0.00;99.90
3758;DHT22;1894;51.038;13.692;2023-02-15T03:19:25;0.00;99.90
3758;DHT22;1894;51.038;13.692;2023-02-15T03:21:58;-0.10;99.90
3758;DHT22;1894;51.038;13.692;2023-02-15T03:27:27;-0.10;99.90
3758;DHT22;1894;51.038;13.692;2023-02-15T03:30:02;0.00;99.90
3758;DHT22;1894;51.038;13.692;2023-02-15T03:32:31;-0.10;99.90
3758;DHT22;1894;51.038;13.692;2023-02-15T03:34:59;0.00;99.90
3758;DHT22;1894;51.038;13.692;2023-02-15T03:37:48;-0.10;99.90
3758;DHT22;1894;51.038;13.692;2023-02-15T03:40:51;-0.10;99.90
3758;DHT22;1894;51.038;13.692;2023-02-15T03:43:38;-0.10;99.90
3758;DHT22;1894;51.038;13.692;2023-02-15T03:46:42;-0.20;99.90
3758;DHT22;1894;51.038;13.692;2023-02-15T03:49:27;-0.30;99.90
3758;DHT22;1894;51.038;13.692;2023-02-15T03:51:59;-0.30;99.90
3758;DHT22;1894;51.038;13.692;2023-02-15T03:54:28;-0.30;99.90
3758;DHT22;1894;51.038;13.692;2023-02-15T04:05:49;-0.40;99.90
3758;DHT22;1894;51.038;13.692;2023-02-15T04:08:16;-0.40;99.90
3758;DHT22;1894;51.038;13.692;2023-02-15T04:10:44;-0.40;99.90
3758;DHT22;1894;51.038;13.692;2023-02-15T04:13:30;-0.30;99.90
3758;DHT22;1894;51.038;13.692;2023-02-15T04:15:58;-0.30;99.90
3758;DHT22;1894;51.038;13.692;2023-02-15T04:18:35;-0.30;99.90
3758;DHT22;1894;51.038;13.692;2023-02-15T04:21:22;-0.30;99.90
3758;DHT22;1894;51.038;13.692;2023-02-15T04:24:10;-0.20;99.90
3758;DHT22;1894;51.038;13.692;2023-02-15T04:26:57;-0.20;99.90
3758;DHT22;1894;51.038;13.692;2023-02-15T04:29:25;-0.30;99.90
3758;DHT22;1894;51.038;13.692;2023-02-15T04:31:54;-0.30;99.90
3758;DHT22;1894;51.038;13.692;2023-02-15T04:34:23;-0.30;99.90
3758;DHT22;1894;51.038;13.692;2023-02-15T04:36:50;-0.30;99.90
3758;DHT22;1894;51.038;13.692;2023-02-15T04:39:18;-0.30;99.90
3758;DHT22;1894;51.038;13.692;2023-02-15T04:41:46;-0.30;99.90
3758;DHT22;1894;51.038;13.692;2023-02-15T04:44:14;-0.30;99.90
3758;DHT22;1894;51.038;13.692;2023-02-15T04:46:42;-0.40;99.90
3758;DHT22;1894;51.038;13.692;2023-02-15T04:49:09;-0.40;99.90
3758;DHT22;1894;51.038;13.692;2023-02-15T04:51:36;-0.30;99.90
3758;DHT22;1894;51.038;13.692;2023-02-15T04:54:04;-0.30;99.90
3758;DHT22;1894;51.038;13.692;2023-02-15T04:56:31;-0.30;99.90
3758;DHT22;1894;51.038;13.692;2023-02-15T04:59:00;-0.30;99.90
3758;DHT22;1894;51.038;13.692;2023-02-15T05:01:27;-0.30;99.90
3758;DHT22;1894;51.038;13.692;2023-02-15T05:03:54;-0.30;99.90
3758;DHT22;1894;51.038;13.692;2023-02-15T05:06:22;-0.20;99.90
3758;DHT22;1894;51.038;13.692;2023-02-15T05:08:49;-0.30;99.90
3758;DHT22;1894;51.038;13.692;2023-02-15T05:11:16;-0.20;99.90
3758;DHT22;1894;51.038;13.692;2023-02-15T05:13:43;-0.20;99.90
3758;DHT22;1894;51.038;13.692;2023-02-15T05:16:10;-0.20;99.90
3758;DHT22;1894;51.038;13.692;2023-02-15T05:18:38;-0.20;99.90
3758;DHT22;1894;51.038;13.692;2023-02-15T05:21:05;-0.20;99.90
3758;DHT22;1894;51.038;13.692;2023-02-15T05:23:32;-0.20;99.90
3758;DHT22;1894;51.038;13.692;2023-02-15T05:25:59;-0.20;99.90
3758;DHT22;1894;51.038;13.692;2023-02-15T05:28:45;-0.10;99.90
3758;DHT22;1894;51.038;13.692;2023-02-15T05:31:17;-0.20;99.90
3758;DHT22;1894;51.038;13.692;2023-02-15T05:33:46;-0.20;99.90
3758;DHT22;1894;51.038;13.692;2023-02-15T05:36:13;-0.20;99.90
3758;DHT22;1894;51.038;13.692;2023-02-15T05:38:40;-0.20;99.90
3758;DHT22;1894;51.038;13.692;2023-02-15T05:41:08;-0.20;99.90
3758;DHT22;1894;51.038;13.692;2023-02-15T05:43:37;-0.30;99.90
3758;DHT22;1894;51.038;13.692;2023-02-15T05:46:05;-0.30;99.90
3758;DHT22;1894;51.038;13.692;2023-02-15T05:48:33;-0.30;99.90
3758;DHT22;1894;51.038;13.692;2023-02-15T05:51:12;-0.20;99.90
3758;DHT22;1894;51.038;13.692;2023-02-15T05:53:42;-0.20;99.90
3758;DHT22;1894;51.038;13.692;2023-02-15T05:56:10;-0.30;99.90
3758;DHT22;1894;51.038;13.692;2023-02-15T05:58:41;-0.20;99.90
3758;DHT22;1894;51.038;13.692;2023-02-15T06:01:13;-0.20;99.90
3758;DHT22;1894;51.038;13.692;2023-02-15T06:03:44;-0.20;99.90
3758;DHT22;1894;51.038;13.692;2023-02-15T06:06:12;-0.20;99.90
3758;DHT22;1894;51.038;13.692;2023-02-15T06:08:39;-0.10;99.90
3758;DHT22;1894;51.038;13.692;2023-02-15T06:11:07;-0.10;99.90
3758;DHT22;1894;51.038;13.692;2023-02-15T06:13:35;-0.10;99.90
3758;DHT22;1894;51.038;13.692;2023-02-15T06:16:05;0.00;99.90
3758;DHT22;1894;51.038;13.692;2023-02-15T06:18:33;0.00;99.90
3758;DHT22;1894;51.038;13.692;2023-02-15T06:21:01;0.00;99.90
3758;DHT22;1894;51.038;13.692;2023-02-15T06:23:28;0.10;99.90
3758;DHT22;1894;51.038;13.692;2023-02-15T06:25:55;0.00;99.90
3758;DHT22;1894;51.038;13.692;2023-02-15T06:28:22;0.10;99.90
3758;DHT22;1894;51.038;13.692;2023-02-15T06:30:52;0.00;99.90
3758;DHT22;1894;51.038;13.692;2023-02-15T06:33:19;0.00;99.90
3758;DHT22;1894;51.038;13.692;2023-02-15T06:35:46;0.00;99.90
3758;DHT22;1894;51.038;13.692;2023-02-15T06:38:14;0.00;99.90
3758;DHT22;1894;51.038;13.692;2023-02-15T06:40:41;0.10;99.90
3758;DHT22;1894;51.038;13.692;2023-02-15T06:43:08;0.10;99.90
3758;DHT22;1894;51.038;13.692;2023-02-15T06:45:36;0.10;99.90
3758;DHT22;1894;51.038;13.692;2023-02-15T06:48:03;0.20;99.90
3758;DHT22;1894;51.038;13.692;2023-02-15T06:50:34;0.30;99.90
3758;DHT22;1894;51.038;13.692;2023-02-15T06:53:01;0.30;99.90
3758;DHT22;1894;51.038;13.692;2023-02-15T06:55:29;0.40;99.90
3758;DHT22;1894;51.038;13.692;2023-02-15T06:57:56;0.40;99.90
3758;DHT22;1894;51.038;13.692;2023-02-15T07:00:23;0.50;99.90
3758;DHT22;1894;51.038;13.692;2023-02-15T07:02:58;0.60;99.90
3758;DHT22;1894;51.038;13.692;2023-02-15T07:05:27;0.60;99.90
3758;DHT22;1894;51.038;13.692;2023-02-15T07:07:58;0.70;99.90
3758;DHT22;1894;51.038;13.692;2023-02-15T07:10:27;0.70;99.90
3758;DHT22;1894;51.038;13.692;2023-02-15T07:12:54;0.80;99.90
3758;DHT22;1894;51.038;13.692;2023-02-15T07:15:22;0.90;99.90
3758;DHT22;1894;51.038;13.692;2023-02-15T07:17:50;0.90;99.90
3758;DHT22;1894;51.038;13.692;2023-02-15T07:20:19;0.90;99.90
3758;DHT22;1894;51.038;13.692;2023-02-15T07:22:49;1.00;99.90
3758;DHT22;1894;51.038;13.692;2023-02-15T07:25:17;1.10;99.90
3758;DHT22;1894;51.038;13.692;2023-02-15T07:27:45;1.10;99.90
3758;DHT22;1894;51.038;13.692;2023-02-15T07:30:14;1.20;99.90
3758;DHT22;1894;51.038;13.692;2023-02-15T07:32:43;1.30;99.90
3758;DHT22;1894;51.038;13.692;2023-02-15T07:35:32;1.40;99.90
3758;DHT22;1894;51.038;13.692;2023-02-15T07:38:00;1.40;99.90
3758;DHT22;1894;51.038;13.692;2023-02-15T07:40:28;1.50;99.90
3758;DHT22;1894;51.038;13.692;2023-02-15T07:42:57;1.50;99.90
3758;DHT22;1894;51.038;13.692;2023-02-15T07:45:26;1.60;99.90
3758;DHT22;1894;51.038;13.692;2023-02-15T07:47:53;1.70;99.90
3758;DHT22;1894;51.038;13.692;2023-02-15T07:50:20;1.80;99.90
3758;DHT22;1894;51.038;13.692;2023-02-15T07:52:48;1.90;99.90
3758;DHT22;1894;51.038;13.692;2023-02-15T07:55:15;2.00;99.90
3758;DHT22;1894;51.038;13.692;2023-02-15T07:57:43;2.00;99.90
3758;DHT22;1894;51.038;13.692;2023-02-15T08:00:13;2.10;99.90
3758;DHT22;1894;51.038;13.692;2023-02-15T08:02:42;2.10;99.90
3758;DHT22;1894;51.038;13.692;2023-02-15T08:05:14;2.30;99.90
3758;DHT22;1894;51.038;13.692;2023-02-15T08:07:43;2.30;99.90
3758;DHT22;1894;51.038;13.692;2023-02-15T08:10:10;2.40;99.90
3758;DHT22;1894;51.038;13.692;2023-02-15T08:12:58;2.60;99.90
3758;DHT22;1894;51.038;13.692;2023-02-15T08:15:25;2.80;99.90
3758;DHT22;1894;51.038;13.692;2023-02-15T08:17:52;2.70;99.90
3758;DHT22;1894;51.038;13.692;2023-02-15T08:20:19;2.70;99.90
3758;DHT22;1894;51.038;13.692;2023-02-15T08:22:46;2.80;99.90
3758;DHT22;1894;51.038;13.692;2023-02-15T08:25:13;2.90;99.90
3758;DHT22;1894;51.038;13.692;2023-02-15T08:27:40;3.00;99.90
3758;DHT22;1894;51.038;13.692;2023-02-15T08:30:08;3.10;99.90
3758;DHT22;1894;51.038;13.692;2023-02-15T08:32:36;3.10;99.90
3758;DHT22;1894;51.038;13.692;2023-02-15T08:35:04;3.20;99.90
3758;DHT22;1894;51.038;13.692;2023-02-15T08:37:31;3.30;99.90
3758;DHT22;1894;51.038;13.692;2023-02-15T08:39:58;3.30;99.90
3758;DHT22;1894;51.038;13.692;2023-02-15T08:42:25;3.50;99.90
3758;DHT22;1894;51.038;13.692;2023-02-15T08:44:53;3.60;99.90
3758;DHT22;1894;51.038;13.692;2023-02-15T08:47:20;3.80;99.90
3758;DHT22;1894;51.038;13.692;2023-02-15T08:49:47;3.90;99.90
3758;DHT22;1894;51.038;13.692;2023-02-15T08:52:14;4.00;99.90
3758;DHT22;1894;51.038;13.692;2023-02-15T08:54:42;4.20;99.90
3758;DHT22;1894;51.038;13.692;2023-02-15T08:57:09;4.20;99.90
3758;DHT22;1894;51.038;13.692;2023-02-15T08:59:37;4.30;99.90
3758;DHT22;1894;51.038;13.692;2023-02-15T09:02:04;4.40;99.90
3758;DHT22;1894;51.038;13.692;2023-02-15T09:04:32;4.40;99.90
3758;DHT22;1894;51.038;13.692;2023-02-15T09:06:59;4.50;99.90
3758;DHT22;1894;51.038;13.692;2023-02-15T09:09:26;4.40;99.90
3758;DHT22;1894;51.038;13.692;2023-02-15T09:11:54;4.60;99.90
3758;DHT22;1894;51.038;13.692;2023-02-15T09:14:26;4.60;99.90
3758;DHT22;1894;51.038;13.692;2023-02-15T09:16:54;4.60;99.90
3758;DHT22;1894;51.038;13.692;2023-02-15T09:19:22;4.70;99.90
3758;DHT22;1894;51.038;13.692;2023-02-15T09:21:50;4.70;99.90
3758;DHT22;1894;51.038;13.692;2023-02-15T09:24:18;4.70;99.90
3758;DHT22;1894;51.038;13.692;2023-02-15T09:26:46;4.80;99.90
3758;DHT22;1894;51.038;13.692;2023-02-15T09:29:15;4.90;99.90
3758;DHT22;1894;51.038;13.692;2023-02-15T09:31:45;5.10;99.90
3758;DHT22;1894;51.038;13.692;2023-02-15T09:34:16;5.10;99.90
3758;DHT22;1894;51.038;13.692;2023-02-15T09:36:45;5.10;99.90
3758;DHT22;1894;51.038;13.692;2023-02-15T09:39:24;5.30;99.90
3758;DHT22;1894;51.038;13.692;2023-02-15T09:42:04;5.40;99.90
3758;DHT22;1894;51.038;13.692;2023-02-15T09:51:06;5.40;99.90
3758;DHT22;1894;51.038;13.692;2023-02-15T09:56:58;5.60;99.90
3758;DHT22;1894;51.038;13.692;2023-02-15T09:59:49;5.60;99.90
3758;DHT22;1894;51.038;13.692;2023-02-15T10:27:37;5.90;99.90
3758;DHT22;1894;51.038;13.692;2023-02-15T10:30:47;6.10;99.90
3758;DHT22;1894;51.038;13.692;2023-02-15T10:33:38;6.10;99.90
3758;DHT22;1894;51.038;13.692;2023-02-15T10:39:11;6.20;99.90
3758;DHT22;1894;51.038;13.692;2023-02-15T10:42:11;6.20;99.90
3758;DHT22;1894;51.038;13.692;2023-02-15T10:45:10;6.40;99.90
3758;DHT22;1894;51.038;13.692;2023-02-15T10:50:54;6.40;99.90
3758;DHT22;1894;51.038;13.692;2023-02-15T11:04:41;6.80;99.90
3758;DHT22;1894;51.038;13.692;2023-02-15T11:07:22;6.90;99.90
3758;DHT22;1894;51.038;13.692;2023-02-15T11:10:05;6.90;99.90
3758;DHT22;1894;51.038;13.692;2023-02-15T11:12:33;7.10;99.90
3758;DHT22;1894;51.038;13.692;2023-02-15T11:15:11;7.20;99.90
3758;DHT22;1894;51.038;13.692;2023-02-15T11:18:37;7.10;99.90
3758;DHT22;1894;51.038;13.692;2023-02-15T11:21:10;7.20;99.90
3758;DHT22;1894;51.038;13.692;2023-02-15T11:23:44;7.30;99.90
3758;DHT22;1894;51.038;13.692;2023-02-15T11:29:18;7.60;99.90
3758;DHT22;1894;51.038;13.692;2023-02-15T11:31:56;8.50;99.90
3758;DHT22;1894;51.038;13.692;2023-02-15T11:34:36;9.40;99.90
3758;DHT22;1894;51.038;13.692;2023-02-15T11:37:21;10.50;99.90
3758;DHT22;1894;51.038;13.692;2023-02-15T11:39:52;11.30;99.90
3758;DHT22;1894;51.038;13.692;2023-02-15T11:42:23;11.70;99.90
3758;DHT22;1894;51.038;13.692;2023-02-15T11:44:59;12.00;99.90
3758;DHT22;1894;51.038;13.692;2023-02-15T11:47:31;12.80;99.90
3758;DHT22;1894;51.038;13.692;2023-02-15T11:49:59;13.60;99.70
3758;DHT22;1894;51.038;13.692;2023-02-15T11:52:26;14.20;97.40
3758;DHT22;1894;51.038;13.692;2023-02-15T11:54:54;15.10;94.30
3758;DHT22;1894;51.038;13.692;2023-02-15T11:57:36;15.00;93.20
3758;DHT22;1894;51.038;13.692;2023-02-15T12:00:16;15.90;89.50
3758;DHT22;1894;51.038;13.692;2023-02-15T12:05:53;17.30;80.20
3758;DHT22;1894;51.038;13.692;2023-02-15T12:08:40;18.10;76.10
3758;DHT22;1894;51.038;13.692;2023-02-15T12:11:19;17.00;73.80
3758;DHT22;1894;51.038;13.692;2023-02-15T12:13:59;18.70;72.20
3758;DHT22;1894;51.038;13.692;2023-02-15T12:16:29;19.20;67.50
3758;DHT22;1894;51.038;13.692;2023-02-15T12:19:29;19.00;67.20
3758;DHT22;1894;51.038;13.692;2023-02-15T12:22:01;19.50;64.70
3758;DHT22;1894;51.038;13.692;2023-02-15T12:24:38;19.20;63.80
3758;DHT22;1894;51.038;13.692;2023-02-15T12:27:18;19.80;63.30
3758;DHT22;1894;51.038;13.692;2023-02-15T12:29:59;19.50;61.90
3758;DHT22;1894;51.038;13.692;2023-02-15T12:35:37;20.40;59.10
3758;DHT22;1894;51.038;13.692;2023-02-15T12:38:25;20.00;58.90
3758;DHT22;1894;51.038;13.692;2023-02-15T12:41:00;20.20;57.90
3758;DHT22;1894;51.038;13.692;2023-02-15T12:43:35;18.50;58.70
3758;DHT22;1894;51.038;13.692;2023-02-15T12:46:33;18.50;60.70
3758;DHT22;1894;51.038;13.692;2023-02-15T12:49:28;19.80;58.90
3758;DHT22;1894;51.038;13.692;2023-02-15T12:52:01;19.30;59.30
3758;DHT22;1894;51.038;13.692;2023-02-15T12:54:31;19.50;57.00
3758;DHT22;1894;51.038;13.692;2023-02-15T12:57:21;19.90;58.10
3758;DHT22;1894;51.038;13.692;2023-02-15T12:59:58;19.50;57.70
3758;DHT22;1894;51.038;13.692;2023-02-15T13:02:41;20.50;56.70
3758;DHT22;1894;51.038;13.692;2023-02-15T13:05:43;20.40;55.60
3758;DHT22;1894;51.038;13.692;2023-02-15T13:08:17;21.00;54.50
3758;DHT22;1894;51.038;13.692;2023-02-15T13:10:54;21.50;53.20
3758;DHT22;1894;51.038;13.692;2023-02-15T13:13:26;21.20;52.70
3758;DHT22;1894;51.038;13.692;2023-02-15T13:16:04;21.40;52.70
3758;DHT22;1894;51.038;13.692;2023-02-15T13:18:45;21.20;52.50
3758;DHT22;1894;51.038;13.692;2023-02-15T13:21:23;22.50;51.40
3758;DHT22;1894;51.038;13.692;2023-02-15T13:24:00;22.20;50.30
3758;DHT22;1894;51.038;13.692;2023-02-15T13:26:34;21.60;50.20
3758;DHT22;1894;51.038;13.692;2023-02-15T13:31:56;21.30;51.10
3758;DHT22;1894;51.038;13.692;2023-02-15T13:34:33;19.80;53.40
3758;DHT22;1894;51.038;13.692;2023-02-15T13:37:16;20.80;51.00
3758;DHT22;1894;51.038;13.692;2023-02-15T13:51:41;21.40;49.50
3758;DHT22;1894;51.038;13.692;2023-02-15T13:57:20;22.40;49.50
3758;DHT22;1894;51.038;13.692;2023-02-15T14:32:42;22.50;45.50
3758;DHT22;1894;51.038;13.692;2023-02-15T14:35:15;21.60;45.70
3758;DHT22;1894;51.038;13.692;2023-02-15T14:41:01;22.80;45.40
3758;DHT22;1894;51.038;13.692;2023-02-15T14:46:55;22.30;44.20
3758;DHT22;1894;51.038;13.692;2023-02-15T14:49:36;21.50;45.50
3758;DHT22;1894;51.038;13.692;2023-02-15T14:52:09;21.20;46.80
3758;DHT22;1894;51.038;13.692;2023-02-15T14:59:56;21.60;46.80
3758;DHT22;1894;51.038;13.692;2023-02-15T15:02:41;20.00;47.10
3758;DHT22;1894;51.038;13.692;2023-02-15T15:05:32;20.50;48.00
3758;DHT22;1894;51.038;13.692;2023-02-15T15:08:03;19.30;48.00
3758;DHT22;1894;51.038;13.692;2023-02-15T15:10:46;16.90;52.40
3758;DHT22;1894;51.038;13.692;2023-02-15T15:18:56;11.70;87.50
3758;DHT22;1894;51.038;13.692;2023-02-15T15:44:59;7.60;99.90
3758;DHT22;1894;51.038;13.692;2023-02-15T15:50:31;7.30;99.90
3758;DHT22;1894;51.038;13.692;2023-02-15T15:53:00;7.00;99.90
3758;DHT22;1894;51.038;13.692;2023-02-15T15:55:30;6.60;99.90
3758;DHT22;1894;51.038;13.692;2023-02-15T15:58:04;6.30;99.90
3758;DHT22;1894;51.038;13.692;2023-02-15T16:03:25;6.10;99.90
3758;DHT22;1894;51.038;13.692;2023-02-15T16:05:54;6.10;99.90
3758;DHT22;1894;51.038;13.692;2023-02-15T16:08:49;6.00;99.90
3758;DHT22;1894;51.038;13.692;2023-02-15T16:11:22;5.80;99.90
3758;DHT22;1894;51.038;13.692;2023-02-15T16:13:51;5.80;99.90
3758;DHT22;1894;51.038;13.692;2023-02-15T16:16:25;5.40;99.90
3758;DHT22;1894;51.038;13.692;2023-02-15T16:18:57;5.40;99.90
3758;DHT22;1894;51.038;13.692;2023-02-15T16:21:35;5.30;99.90
3758;DHT22;1894;51.038;13.692;2023-02-15T16:24:22;5.20;99.90
3758;DHT22;1894;51.038;13.692;2023-02-15T16:29:41;5.00;99.90
3758;DHT22;1894;51.038;13.692;2023-02-15T16:32:29;4.80;99.90
3758;DHT22;1894;51.038;13.692;2023-02-15T16:34:59;4.70;99.90
3758;DHT22;1894;51.038;13.692;2023-02-15T16:37:33;4.50;99.90
3758;DHT22;1894;51.038;13.692;2023-02-15T16:40:01;4.40;99.90
3758;DHT22;1894;51.038;13.692;2023-02-15T16:42:28;4.40;99.90
3758;DHT22;1894;51.038;13.692;2023-02-15T16:45:03;4.30;99.90
3758;DHT22;1894;51.038;13.692;2023-02-15T16:47:39;4.30;99.90
3758;DHT22;1894;51.038;13.692;2023-02-15T16:50:32;4.20;99.90
3758;DHT22;1894;51.038;13.692;2023-02-15T16:53:02;4.10;99.90
3758;DHT22;1894;51.038;13.692;2023-02-15T16:55:39;4.10;99.90
3758;DHT22;1894;51.038;13.692;2023-02-15T16:58:14;4.00;99.90
3758;DHT22;1894;51.038;13.692;2023-02-15T17:00:43;4.00;99.90
3758;DHT22;1894;51.038;13.692;2023-02-15T17:05:50;3.80;99.90
3758;DHT22;1894;51.038;13.692;2023-02-15T17:08:43;3.70;99.90
3758;DHT22;1894;51.038;13.692;2023-02-15T17:11:19;3.60;99.90
3758;DHT22;1894;51.038;13.692;2023-02-15T17:14:12;3.60;99.90
3758;DHT22;1894;51.038;13.692;2023-02-15T17:16:44;3.50;99.90
3758;DHT22;1894;51.038;13.692;2023-02-15T17:19:40;3.40;99.90
3758;DHT22;1894;51.038;13.692;2023-02-15T17:22:18;3.40;99.90
3758;DHT22;1894;51.038;13.692;2023-02-15T17:24:48;3.20;99.90
3758;DHT22;1894;51.038;13.692;2023-02-15T17:27:26;3.20;99.90
3758;DHT22;1894;51.038;13.692;2023-02-15T17:30:12;3.10;99.90
3758;DHT22;1894;51.038;13.692;2023-02-15T17:32:57;3.10;99.90
3758;DHT22;1894;51.038;13.692;2023-02-15T17:35:31;3.00;99.90
3758;DHT22;1894;51.038;13.692;2023-02-15T17:38:04;3.00;99.90
3758;DHT22;1894;51.038;13.692;2023-02-15T17:40:35;2.90;99.90
3758;DHT22;1894;51.038;13.692;2023-02-15T17:43:03;3.00;99.90
3758;DHT22;1894;51.038;13.692;2023-02-15T17:45:33;2.90;99.90
3758;DHT22;1894;51.038;13.692;2023-02-15T17:50:50;2.80;99.90
3758;DHT22;1894;51.038;13.692;2023-02-15T17:53:18;2.70;99.90
3758;DHT22;1894;51.038;13.692;2023-02-15T17:55:45;2.60;99.90
3758;DHT22;1894;51.038;13.692;2023-02-15T17:58:14;2.60;99.90
3758;DHT22;1894;51.038;13.692;2023-02-15T18:00:49;2.60;99.90
3758;DHT22;1894;51.038;13.692;2023-02-15T18:03:45;2.60;99.90
3758;DHT22;1894;51.038;13.692;2023-02-15T18:06:34;2.50;99.90
3758;DHT22;1894;51.038;13.692;2023-02-15T18:09:21;2.50;99.90
3758;DHT22;1894;51.038;13.692;2023-02-15T18:12:22;2.40;99.90
3758;DHT22;1894;51.038;13.692;2023-02-15T18:14:54;2.40;99.90
3758;DHT22;1894;51.038;13.692;2023-02-15T18:17:44;2.40;99.90
3758;DHT22;1894;51.038;13.692;2023-02-15T18:22:51;2.30;99.90
3758;DHT22;1894;51.038;13.692;2023-02-15T18:25:20;2.30;99.90
3758;DHT22;1894;51.038;13.692;2023-02-15T18:27:49;2.30;99.90
3758;DHT22;1894;51.038;13.692;2023-02-15T18:30:20;2.20;99.90
3758;DHT22;1894;51.038;13.692;2023-02-15T18:32:51;2.20;99.90
3758;DHT22;1894;51.038;13.692;2023-02-15T18:35:22;2.20;99.90
3758;DHT22;1894;51.038;13.692;2023-02-15T18:37:52;2.10;99.90
3758;DHT22;1894;51.038;13.692;2023-02-15T18:40:22;2.10;99.90
3758;DHT22;1894;51.038;13.692;2023-02-15T18:42:51;2.10;99.90
3758;DHT22;1894;51.038;13.692;2023-02-15T18:45:23;2.00;99.90
3758;DHT22;1894;51.038;13.692;2023-02-15T18:47:54;2.10;99.90
3758;DHT22;1894;51.038;13.692;2023-02-15T18:50:23;2.00;99.90
3758;DHT22;1894;51.038;13.692;2023-02-15T18:52:52;2.00;99.90
3758;DHT22;1894;51.038;13.692;2023-02-15T18:55:22;2.00;99.90
3758;DHT22;1894;51.038;13.692;2023-02-15T18:57:53;2.00;99.90
3758;DHT22;1894;51.038;13.692;2023-02-15T19:00:24;1.90;99.90
3758;DHT22;1894;51.038;13.692;2023-02-15T19:02:56;1.90;99.90
3758;DHT22;1894;51.038;13.692;2023-02-15T19:05:25;1.90;99.90
3758;DHT22;1894;51.038;13.692;2023-02-15T19:07:57;1.90;99.90
3758;DHT22;1894;51.038;13.692;2023-02-15T19:10:27;1.90;99.90
3758;DHT22;1894;51.038;13.692;2023-02-15T19:12:56;1.90;99.90
3758;DHT22;1894;51.038;13.692;2023-02-15T19:15:28;1.90;99.90
3758;DHT22;1894;51.038;13.692;2023-02-15T19:17:56;1.90;99.90
3758;DHT22;1894;51.038;13.692;2023-02-15T19:20:38;1.80;99.90
3758;DHT22;1894;51.038;13.692;2023-02-15T19:23:20;1.80;99.90
3758;DHT22;1894;51.038;13.692;2023-02-15T19:25:49;1.80;99.90
3758;DHT22;1894;51.038;13.692;2023-02-15T19:28:31;1.70;99.90
3758;DHT22;1894;51.038;13.692;2023-02-15T19:30:59;1.70;99.90
3758;DHT22;1894;51.038;13.692;2023-02-15T19:33:26;1.70;99.90
3758;DHT22;1894;51.038;13.692;2023-02-15T19:35:57;1.70;99.90
3758;DHT22;1894;51.038;13.692;2023-02-15T19:38:32;1.70;99.90
3758;DHT22;1894;51.038;13.692;2023-02-15T19:41:06;1.70;99.90
3758;DHT22;1894;51.038;13.692;2023-02-15T19:43:34;1.60;99.90
3758;DHT22;1894;51.038;13.692;2023-02-15T19:46:02;1.60;99.90
3758;DHT22;1894;51.038;13.692;2023-02-15T19:48:30;1.60;99.90
3758;DHT22;1894;51.038;13.692;2023-02-15T19:50:57;1.60;99.90
3758;DHT22;1894;51.038;13.692;2023-02-15T19:53:26;1.60;99.90
3758;DHT22;1894;51.038;13.692;2023-02-15T19:55:54;1.60;99.90
3758;DHT22;1894;51.038;13.692;2023-02-15T19:58:21;1.60;99.90
3758;DHT22;1894;51.038;13.692;2023-02-15T20:00:50;1.60;99.90
3758;DHT22;1894;51.038;13.692;2023-02-15T20:03:20;1.60;99.90
3758;DHT22;1894;51.038;13.692;2023-02-15T20:05:48;1.60;99.90